Time;durP1;ratioP1;P1;durP2;ratioP2;P2;SDS_P1;SDS_P2;PMS_P1;PMS_P2;Temp;Humidity;BMP_temperature;BMP_pressure;BME280_temperature;BME280_humidity;BME280_pressure;Samples;Min_cycle;Max_cycle;Signal;HPM_P1;HPM_P2
2023/11/14 00:01:48;;;;;;;;;;;;;;;13.94;43.46;100874.38;5096783;28;1062;-39
2023/11/14 00:04:13;;;;;;;;;;;;;;;15.05;43.84;100873.78;5088690;28;1324;-39
2023/11/14 00:06:39;;;;;;;;;;;;;;;14.47;44.42;100878.25;5096538;28;936;-38
2023/11/14 00:09:05;;;;;;;;;;;;;;;14.16;44.31;100881.84;5096089;28;1140;-42
2023/11/14 00:11:34;;;;;;;;;;;;;;;14.69;44.52;100889.25;5091507;28;1198;-42
2023/11/14 00:14:01;;;;;;;;;;;;;;;14.78;44.38;100876.38;5096144;28;1149;-42
2023/11/14 00:16:26;;;;;;;;;;;;;;;14.32;44.75;100875.63;5096450;28;1061;-42
2023/11/14 00:18:52;;;;;;;;;;;;;;;14.25;44.32;100884.88;5096584;28;1974;-42
2023/11/14 00:21:18;;;;;;;;;;;;;;;14.16;43.89;100883.66;5096259;28;1138;-38
2023/11/14 00:23:44;;;;;;;;;;;;;;;14.07;43.65;100879.75;5096610;28;1212;-39
2023/11/14 00:26:09;;;;;;;;;;;;;;;15.10;44.09;100880.59;5096547;28;1144;-38
2023/11/14 00:28:36;;;;;;;;;;;;;;;14.37;44.83;100872.69;5096635;28;1202;-42
2023/11/14 00:31:02;;;;;;;;;;;;;;;15.90;43.70;100882.38;5096259;28;1065;-41
2023/11/14 00:33:28;;;;;;;;;;;;;;;15.45;44.69;100879.22;5096330;28;1135;-41
2023/11/14 00:35:54;;;;;;;;;;;;;;;14.88;45.21;100872.19;5096501;28;1114;-37
2023/11/14 00:38:19;;;;;;;;;;;;;;;14.59;44.55;100872.22;5096158;28;1906;-35
2023/11/14 00:40:45;;;;;;;;;;;;;;;14.48;44.49;100872.88;5096175;28;1151;-40
2023/11/14 00:43:10;;;;;;;;;;;;;;;14.27;44.32;100875.06;5096368;28;1148;-40
2023/11/14 00:45:36;;;;;;;;;;;;;;;14.23;43.80;100868.25;5095996;28;1078;-39
2023/11/14 00:48:01;;;;;;;;;;;;;;;14.18;43.27;100873.84;5096631;28;1070;-37
2023/11/14 00:50:27;;;;;;;;;;;;;;;14.96;44.13;100871.72;5095783;28;1136;-41
2023/11/14 00:52:53;;;;;;;;;;;;;;;14.41;44.51;100871.56;5094854;28;1137;-36
2023/11/14 00:55:18;;;;;;;;;;;;;;;15.50;44.24;100863.84;5095036;28;1138;-37
2023/11/14 00:57:44;;;;;;;;;;;;;;;15.32;44.93;100869.41;5096295;28;1061;-36
2023/11/14 01:00:11;;;;;;;;;;;;;;;14.81;45.12;100869.09;5096315;28;1929;-36
2023/11/14 01:02:39;;;;;;;;;;;;;;;14.62;44.73;100865.88;5096174;28;1114;-36
2023/11/14 01:05:05;;;;;;;;;;;;;;;14.42;44.24;100866.19;5096047;28;1194;-39
2023/11/14 01:07:30;;;;;;;;;;;;;;;14.29;44.27;100874.03;5096377;28;1095;-37
2023/11/14 01:09:56;;;;;;;;;;;;;;;14.19;43.87;100865.81;5128928;27;1631;-39
2023/11/14 01:12:23;;;;;;;;;;;;;;;15.34;44.02;100875.47;5095922;28;1157;-39
2023/11/14 01:14:48;;;;;;;;;;;;;;;14.65;44.93;100878.91;5094682;28;1204;-38
2023/11/14 01:17:14;;;;;;;;;;;;;;;14.44;44.85;100879.31;5094642;28;1139;-40
2023/11/14 01:19:40;;;;;;;;;;;;;;;15.22;44.55;100881.56;5094033;28;1969;-38
2023/11/14 01:22:05;;;;;;;;;;;;;;;14.60;45.13;100879.22;5094885;28;1532;-38
2023/11/14 01:24:31;;;;;;;;;;;;;;;14.45;44.44;100875.72;5095572;28;1096;-39
2023/11/14 01:26:56;;;;;;;;;;;;;;;14.31;44.07;100887.16;5094448;28;1495;-37
2023/11/14 01:29:22;;;;;;;;;;;;;;;14.22;43.80;100878.00;5095986;28;1058;-38
2023/11/14 01:31:47;;;;;;;;;;;;;;;14.75;44.74;100879.19;5095629;28;1113;-37
2023/11/14 01:34:13;;;;;;;;;;;;;;;14.86;44.58;100870.59;5094449;28;1023;-38
2023/11/14 01:36:38;;;;;;;;;;;;;;;14.42;45.04;100870.63;5095040;28;1285;-40
2023/11/14 01:39:05;;;;;;;;;;;;;;;14.26;44.41;100863.66;5094007;28;1972;-37
2023/11/14 01:41:30;;;;;;;;;;;;;;;14.18;44.05;100876.50;5093952;28;1007;-36
2023/11/14 01:43:56;;;;;;;;;;;;;;;14.16;43.49;100870.44;5095932;28;1089;-40
2023/11/14 01:46:21;;;;;;;;;;;;;;;14.12;43.23;100877.69;5095917;28;953;-40
2023/11/14 01:48:47;;;;;;;;;;;;;;;13.99;43.39;100880.25;5095511;28;1129;-39
2023/11/14 01:51:14;;;;;;;;;;;;;;;15.12;43.72;100879.53;5096595;28;848;-38
2023/11/14 01:53:39;;;;;;;;;;;;;;;14.37;44.72;100877.97;5098087;28;1187;-38
2023/11/14 01:56:05;;;;;;;;;;;;;;;14.16;44.54;100887.13;5131699;27;1101;-37
2023/11/14 01:58:31;;;;;;;;;;;;;;;14.07;44.21;100880.63;5098297;28;1902;-38
2023/11/14 02:00:56;;;;;;;;;;;;;;;14.08;43.41;100870.88;5081071;28;1315;-40
2023/11/14 02:03:22;;;;;;;;;;;;;;;14.33;44.48;100874.66;5097350;28;1050;-38
2023/11/14 02:05:47;;;;;;;;;;;;;;;15.12;43.89;100858.31;5097847;28;1078;-39
2023/11/14 02:08:13;;;;;;;;;;;;;;;14.38;44.79;100858.53;5098884;28;1109;-40
2023/11/14 02:10:38;;;;;;;;;;;;;;;15.82;43.98;100859.97;5089965;28;1367;-38
2023/11/14 02:13:04;;;;;;;;;;;;;;;15.18;44.75;100855.28;5095846;28;1094;-37
2023/11/14 02:15:29;;;;;;;;;;;;;;;14.59;45.26;100855.47;5097605;28;1090;-39
2023/11/14 02:17:55;;;;;;;;;;;;;;;14.40;44.63;100860.13;5099233;28;968;-39
2023/11/14 02:20:20;;;;;;;;;;;;;;;14.95;45.18;100854.13;5097750;28;1905;-40
2023/11/14 02:22:46;;;;;;;;;;;;;;;14.69;44.84;100844.22;5097438;28;1090;-40
2023/11/14 02:25:11;;;;;;;;;;;;;;;14.45;44.65;100854.53;5099010;28;1125;-39
2023/11/14 02:27:37;;;;;;;;;;;;;;;14.31;44.22;100848.31;5098772;28;1209;-42
2023/11/14 02:30:05;;;;;;;;;;;;;;;14.70;45.00;100858.28;5098602;28;1046;-38
2023/11/14 02:32:31;;;;;;;;;;;;;;;14.96;44.90;100858.47;5098461;28;1130;-40
2023/11/14 02:34:57;;;;;;;;;;;;;;;14.48;45.13;100854.34;5098800;28;1057;-38
2023/11/14 02:37:23;;;;;;;;;;;;;;;14.29;44.69;100850.22;5098581;28;1066;-38
2023/11/14 02:39:48;;;;;;;;;;;;;;;15.06;44.73;100856.91;5096956;28;1902;-40
2023/11/14 02:42:16;;;;;;;;;;;;;;;14.72;44.67;100850.25;5096990;28;1122;-40
2023/11/14 02:44:41;;;;;;;;;;;;;;;14.36;44.75;100848.03;5098468;28;1066;-40
2023/11/14 02:47:07;;;;;;;;;;;;;;;14.27;44.23;100845.94;5098413;28;1066;-42
2023/11/14 02:49:45;;;;;;;;;;;;;;;14.32;43.82;100838.56;5098348;28;1086;-39
2023/11/14 02:52:10;;;;;;;;;;;;;;;14.13;43.48;100846.81;5098172;28;1086;-39
2023/11/14 02:54:36;;;;;;;;;;;;;;;14.03;43.76;100846.53;5094118;28;1284;-38
2023/11/14 02:57:01;;;;;;;;;;;;;;;14.82;44.65;100854.06;5098344;28;1142;-39
2023/11/14 02:59:27;;;;;;;;;;;;;;;14.37;44.99;100857.66;5098344;28;1994;-37
2023/11/14 03:01:53;;;;;;;;;;;;;;;14.17;44.58;100851.81;5097407;28;1557;-39
2023/11/14 03:04:19;;;;;;;;;;;;;;;14.10;43.97;100852.28;5096877;28;867;-37
2023/11/14 03:06:44;;;;;;;;;;;;;;;14.04;43.89;100851.72;5098055;28;1038;-40
2023/11/14 03:09:10;;;;;;;;;;;;;;;14.45;44.30;100852.75;5096690;28;1201;-38
2023/11/14 03:11:35;;;;;;;;;;;;;;;14.95;44.20;100859.41;5130682;27;1151;-42
2023/11/14 03:14:01;;;;;;;;;;;;;;;14.36;44.85;100861.28;5096227;28;1044;-40
2023/11/14 03:16:26;;;;;;;;;;;;;;;14.20;44.45;100862.22;5097305;28;1066;-37
2023/11/14 03:18:52;;;;;;;;;;;;;;;15.21;44.23;100858.69;5097812;28;1909;-40
2023/11/14 03:21:17;;;;;;;;;;;;;;;14.45;45.04;100850.09;5098152;28;1030;-39
2023/11/14 03:23:43;;;;;;;;;;;;;;;14.28;44.94;100851.13;5097635;28;1260;-38
2023/11/14 03:26:09;;;;;;;;;;;;;;;14.14;44.35;100852.00;5097348;28;1038;-39
2023/11/14 03:28:34;;;;;;;;;;;;;;;14.06;44.34;100849.81;5097552;28;952;-39
2023/11/14 03:31:00;;;;;;;;;;;;;;;14.27;44.68;100848.59;5097752;28;1082;-39
2023/11/14 03:33:25;;;;;;;;;;;;;;;15.04;44.30;100840.28;5095892;28;1328;-39
2023/11/14 03:35:51;;;;;;;;;;;;;;;14.32;45.00;100834.16;5097462;28;1173;-40
2023/11/14 03:38:16;;;;;;;;;;;;;;;14.28;44.61;100840.56;5097335;28;1905;-39
2023/11/14 03:40:42;;;;;;;;;;;;;;;15.07;44.56;100839.22;5096740;28;1046;-38
2023/11/14 03:43:08;;;;;;;;;;;;;;;14.64;45.09;100830.44;5097426;28;1022;-40
2023/11/14 03:45:34;;;;;;;;;;;;;;;14.32;44.82;100842.09;5122652;27;1307;-40
2023/11/14 03:47:59;;;;;;;;;;;;;;;15.50;44.13;100840.84;5089066;28;1177;-41
2023/11/14 03:50:25;;;;;;;;;;;;;;;14.78;44.84;100837.47;5097148;28;1034;-38
2023/11/14 03:52:50;;;;;;;;;;;;;;;14.52;44.66;100833.84;5096804;28;860;-37
2023/11/14 03:55:16;;;;;;;;;;;;;;;14.33;44.50;100838.47;5096574;28;1078;-38
2023/11/14 03:57:41;;;;;;;;;;;;;;;14.24;43.94;100832.91;5090999;28;1065;-37
2023/11/14 04:00:09;;;;;;;;;;;;;;;14.11;43.94;100830.19;5092171;28;1909;-42
2023/11/14 04:02:44;;;;;;;;;;;;;;;14.07;43.54;100826.84;5094960;28;1013;-39
2023/11/14 04:05:09;;;;;;;;;;;;;;;15.03;44.16;100833.28;5096794;28;1112;-38
2023/11/14 04:07:35;;;;;;;;;;;;;;;14.42;44.89;100829.13;5097201;28;1082;-48
2023/11/14 04:10:00;;;;;;;;;;;;;;;14.38;45.18;100827.59;5096784;28;1141;-43
2023/11/14 04:12:26;;;;;;;;;;;;;;;15.47;44.28;100830.44;5125675;27;1395;-49
2023/11/14 04:14:52;;;;;;;;;;;;;;;14.56;45.22;100835.34;5096982;28;1114;-45
2023/11/14 04:17:18;;;;;;;;;;;;;;;14.40;44.72;100831.00;5096479;28;1110;-50
2023/11/14 04:19:44;;;;;;;;;;;;;;;14.27;44.46;100833.56;5096817;28;1979;-49
2023/11/14 04:22:11;;;;;;;;;;;;;;;14.14;44.29;100830.84;5095370;28;1665;-52
2023/11/14 04:24:37;;;;;;;;;;;;;;;14.03;43.85;100836.78;5096318;28;1010;-50
2023/11/14 04:27:03;;;;;;;;;;;;;;;14.01;43.84;100840.47;5096367;28;1192;-48
2023/11/14 04:29:28;;;;;;;;;;;;;;;15.18;44.54;100855.28;5096365;28;883;-48
2023/11/14 04:31:54;;;;;;;;;;;;;;;14.40;45.31;100851.31;5096700;28;1014;-50
2023/11/14 04:34:19;;;;;;;;;;;;;;;14.19;45.21;100857.00;5096286;28;1117;-49
2023/11/14 04:36:45;;;;;;;;;;;;;;;14.12;44.44;100850.38;5096377;28;1126;-47
2023/11/14 04:39:10;;;;;;;;;;;;;;;14.02;44.07;100853.59;5095169;28;1917;-48
2023/11/14 04:41:36;;;;;;;;;;;;;;;14.52;44.81;100858.53;5094552;28;1233;-52
2023/11/14 04:44:02;;;;;;;;;;;;;;;14.75;44.90;100855.34;5095038;28;1523;-51
2023/11/14 04:46:27;;;;;;;;;;;;;;;14.27;45.20;100854.75;5096163;28;1188;-50
2023/11/14 04:48:53;;;;;;;;;;;;;;;14.25;44.80;100855.75;5096400;28;1070;-50
2023/11/14 04:51:19;;;;;;;;;;;;;;;14.08;44.28;100844.41;5096380;28;1053;-53
2023/11/14 04:53:44;;;;;;;;;;;;;;;15.24;44.24;100847.88;5095349;28;904;-49
2023/11/14 04:56:14;;;;;;;;;;;;;;;14.48;45.28;100833.16;5084895;28;1208;-46
2023/11/14 04:58:40;;;;;;;;;;;;;;;14.22;45.02;100832.16;5095392;28;1979;-43
2023/11/14 05:01:05;;;;;;;;;;;;;;;14.03;44.62;100831.47;5096057;28;1209;-37
2023/11/14 05:03:31;;;;;;;;;;;;;;;15.04;44.86;100836.78;5096300;28;1114;-44
2023/11/14 05:05:57;;;;;;;;;;;;;;;14.52;45.15;100839.13;5096242;28;930;-40
2023/11/14 05:08:23;;;;;;;;;;;;;;;14.25;44.83;100845.19;5095825;28;1058;-38
2023/11/14 05:10:49;;;;;;;;;;;;;;;14.16;44.38;100843.97;5095987;28;1185;-43
2023/11/14 05:13:15;;;;;;;;;;;;;;;14.02;44.21;100840.38;5095888;28;1063;-39
2023/11/14 05:15:41;;;;;;;;;;;;;;;13.92;43.92;100842.72;5096021;28;1162;-44
2023/11/14 05:18:08;;;;;;;;;;;;;;;13.94;43.54;100846.13;5095919;28;881;-39
2023/11/14 05:20:33;;;;;;;;;;;;;;;14.53;44.59;100846.97;5096241;28;1976;-39
2023/11/14 05:22:59;;;;;;;;;;;;;;;14.68;44.81;100844.31;5096000;28;1152;-37
2023/11/14 05:25:24;;;;;;;;;;;;;;;14.24;45.12;100852.28;5096037;28;1050;-37
2023/11/14 05:27:50;;;;;;;;;;;;;;;14.10;44.65;100861.06;5099441;28;1291;-38
2023/11/14 05:30:16;;;;;;;;;;;;;;;14.44;45.10;100856.34;5099575;28;976;-39
2023/11/14 05:32:41;;;;;;;;;;;;;;;15.40;43.02;100861.81;5099741;28;1030;-45
2023/11/14 05:35:09;;;;;;;;;;;;;;;15.99;41.66;100859.72;5099763;28;1066;-45
2023/11/14 05:37:34;;;;;;;;;;;;;;;16.87;40.05;100857.13;5099493;28;1022;-42
2023/11/14 05:40:00;;;;;;;;;;;;;;;17.30;38.91;100859.44;5132576;27;1913;-40
2023/11/14 05:42:25;;;;;;;;;;;;;;;16.42;40.62;100865.63;5099849;28;1038;-42
2023/11/14 05:44:51;;;;;;;;;;;;;;;17.25;39.51;100850.00;5099536;28;1030;-45
2023/11/14 05:47:18;;;;;;;;;;;;;;;17.12;39.35;100849.19;5099716;28;1194;-43
2023/11/14 05:49:44;;;;;;;;;;;;;;;16.47;40.71;100860.84;5099235;28;1197;-42
2023/11/14 05:52:10;;;;;;;;;;;;;;;17.19;39.50;100861.09;5099384;28;1042;-44
2023/11/14 05:54:36;;;;;;;;;;;;;;;17.05;39.84;100858.56;5099453;28;1058;-43
2023/11/14 05:57:01;;;;;;;;;;;;;;;16.43;41.21;100856.72;5099696;28;1041;-38
2023/11/14 05:59:27;;;;;;;;;;;;;;;17.31;39.58;100854.00;5099028;28;1910;-48
2023/11/14 06:01:53;;;;;;;;;;;;;;;17.00;40.00;100857.09;5098862;28;1202;-42
2023/11/14 06:04:21;;;;;;;;;;;;;;;16.72;40.62;100860.91;5098845;28;1146;-39
2023/11/14 06:06:47;;;;;;;;;;;;;;;17.55;39.21;100857.59;5099170;28;987;-39
2023/11/14 06:09:12;;;;;;;;;;;;;;;16.85;40.40;100858.22;5103125;28;1026;-43
2023/11/14 06:11:38;;;;;;;;;;;;;;;16.51;41.36;100861.50;5106503;28;1150;-44
2023/11/14 06:14:04;;;;;;;;;;;;;;;17.50;39.20;100853.47;5099044;28;1051;-44
2023/11/14 06:16:30;;;;;;;;;;;;;;;16.86;40.61;100868.75;5098603;28;1091;-46
2023/11/14 06:18:55;;;;;;;;;;;;;;;17.19;40.23;100871.72;5098779;28;1979;-47
2023/11/14 06:21:21;;;;;;;;;;;;;;;17.40;39.41;100864.94;5098421;28;1074;-41
2023/11/14 06:23:46;;;;;;;;;;;;;;;16.94;40.46;100865.50;5131271;27;1177;-40
2023/11/14 06:26:11;;;;;;;;;;;;;;;16.85;40.77;100867.03;5086414;28;1162;-40
2023/11/14 06:28:37;;;;;;;;;;;;;;;17.54;39.37;100861.22;5087289;27;1185;-41
2023/11/14 06:31:03;;;;;;;;;;;;;;;16.94;40.69;100870.81;5091125;28;1351;-37
2023/11/14 06:33:32;;;;;;;;;;;;;;;16.54;41.45;100861.25;5096902;28;1074;-40
2023/11/14 06:36:00;;;;;;;;;;;;;;;17.35;40.25;100855.47;5092080;28;1413;-39
2023/11/14 06:38:26;;;;;;;;;;;;;;;17.10;40.42;100853.81;5097275;28;1910;-41
2023/11/14 06:40:51;;;;;;;;;;;;;;;16.66;41.39;100848.91;5086608;28;1106;-42
2023/11/14 06:43:18;;;;;;;;;;;;;;;17.11;40.89;100842.19;5098139;28;1417;-42
2023/11/14 06:45:43;;;;;;;;;;;;;;;17.22;40.48;100838.72;5086465;28;1284;-38
2023/11/14 06:48:09;;;;;;;;;;;;;;;16.72;41.57;100840.50;5083851;28;1148;-39
2023/11/14 06:50:34;;;;;;;;;;;;;;;16.86;41.51;100838.66;5090954;28;1305;-38
2023/11/14 06:53:00;;;;;;;;;;;;;;;17.65;39.61;100828.50;5096125;28;1109;-41
2023/11/14 06:55:26;;;;;;;;;;;;;;;16.97;40.84;100825.44;5086080;28;1105;-46
2023/11/14 06:57:52;;;;;;;;;;;;;;;16.64;41.91;100818.94;5091365;28;1143;-43
2023/11/14 07:00:18;;;;;;;;;;;;;;;17.55;39.98;100823.03;5090091;28;1913;-49
2023/11/14 07:02:44;;;;;;;;;;;;;;;17.24;40.70;100835.00;5097543;28;1292;-46
2023/11/14 07:05:09;;;;;;;;;;;;;;;16.76;41.54;100828.72;5097563;28;1382;-42
2023/11/14 07:07:37;;;;;;;;;;;;;;;17.20;41.29;100824.72;5084781;28;1178;-45
2023/11/14 07:10:02;;;;;;;;;;;;;;;17.20;40.96;100822.06;5090391;28;1422;-44
2023/11/14 07:12:28;;;;;;;;;;;;;;;16.75;41.98;100824.34;5097633;28;1508;-41
2023/11/14 07:14:55;;;;;;;;;;;;;;;17.23;41.12;100821.84;5093673;28;1521;-41
2023/11/14 07:17:21;;;;;;;;;;;;;;;17.00;41.30;100814.56;5096764;28;1308;-44
2023/11/14 07:19:47;;;;;;;;;;;;;;;16.60;41.98;100806.88;5080935;28;1976;-44
2023/11/14 07:22:12;;;;;;;;;;;;;;;16.38;42.50;100816.38;5096773;28;1481;-42
2023/11/14 07:24:38;;;;;;;;;;;;;;;17.09;41.37;100815.72;5097037;28;1453;-44
2023/11/14 07:27:05;;;;;;;;;;;;;;;17.17;41.04;100812.50;5089636;28;1358;-45
2023/11/14 07:29:31;;;;;;;;;;;;;;;16.75;41.70;100816.38;5096872;28;1425;-46
2023/11/14 07:31:56;;;;;;;;;;;;;;;16.46;42.25;100821.97;5097102;28;1437;-49
2023/11/14 07:34:22;;;;;;;;;;;;;;;16.86;41.90;100823.56;5096824;28;1484;-42
2023/11/14 07:36:48;;;;;;;;;;;;;;;17.12;41.14;100814.66;5097098;28;1406;-41
2023/11/14 07:39:13;;;;;;;;;;;;;;;16.63;42.00;100814.63;5096653;28;1918;-43
2023/11/14 07:41:39;;;;;;;;;;;;;;;16.40;42.91;100817.09;5095911;28;1371;-38
2023/11/14 07:44:09;;;;;;;;;;;;;;;17.54;40.33;100808.88;5095085;28;1447;-45
2023/11/14 07:46:36;;;;;;;;;;;;;;;16.98;41.36;100811.16;5096444;28;1457;-41
2023/11/14 07:49:02;;;;;;;;;;;;;;;16.57;42.34;100823.00;5096624;28;1418;-37
2023/11/14 07:51:27;;;;;;;;;;;;;;;17.12;41.43;100818.16;5096810;28;1429;-41
2023/11/14 07:53:53;;;;;;;;;;;;;;;17.37;40.35;100813.66;5096767;28;1422;-45
2023/11/14 07:56:19;;;;;;;;;;;;;;;16.83;41.61;100825.59;5096524;28;1453;-45
2023/11/14 07:58:44;;;;;;;;;;;;;;;16.86;41.85;100828.88;5096083;28;1910;-47
2023/11/14 08:01:10;;;;;;;;;;;;;;;17.50;40.47;100813.56;5096640;28;1375;-40
2023/11/14 08:03:36;;;;;;;;;;;;;;;16.94;41.46;100824.78;5084964;28;1414;-38
2023/11/14 08:06:02;;;;;;;;;;;;;;;16.63;42.10;100819.94;5090180;28;1200;-39
2023/11/14 08:08:27;;;;;;;;;;;;;;;16.37;43.05;100826.13;5093753;28;1409;-38
2023/11/14 08:10:53;;;;;;;;;;;;;;;16.98;41.75;100828.94;5092361;28;1264;-40
2023/11/14 08:13:18;;;;;;;;;;;;;;;17.25;40.94;100818.09;5093998;28;1374;-38
2023/11/14 08:15:44;;;;;;;;;;;;;;;16.67;42.25;100812.56;5096520;28;1449;-39
2023/11/14 08:18:09;;;;;;;;;;;;;;;16.45;42.50;100812.31;5095621;28;1484;-38
2023/11/14 08:20:35;;;;;;;;;;;;;;;16.60;42.29;100804.22;5093856;28;1906;-38
2023/11/14 08:23:02;;;;;;;;;;;;;;;17.27;40.97;100802.03;5093866;28;1268;-41
2023/11/14 08:25:28;;;;;;;;;;;;;;;16.74;42.16;100800.53;5096565;28;1359;-38
2023/11/14 08:27:55;;;;;;;;;;;;;;;16.97;41.76;100801.50;5095979;28;1346;-38
2023/11/14 08:30:20;;;;;;;;;;;;;;;17.20;40.94;100806.94;5095475;28;1468;-40
2023/11/14 08:32:47;;;;;;;;;;;;;;;16.70;41.95;100813.19;5096030;28;1429;-39
2023/11/14 08:35:13;;;;;;;;;;;;;;;16.48;42.41;100801.47;5096147;28;1520;-40
2023/11/14 08:37:39;;;;;;;;;;;;;;;17.24;41.39;100795.13;5096025;28;1418;-38
2023/11/14 08:40:06;;;;;;;;;;;;;;;17.34;40.91;100783.78;5096666;28;1902;-37
2023/11/14 08:42:31;;;;;;;;;;;;;;;16.81;42.04;100783.19;5091042;28;1279;-38
2023/11/14 08:44:57;;;;;;;;;;;;;;;16.84;42.24;100788.28;5095846;28;1350;-37
2023/11/14 08:47:22;;;;;;;;;;;;;;;17.49;40.74;100773.78;5095534;28;1457;-38
2023/11/14 08:49:51;;;;;;;;;;;;;;;16.88;41.97;100767.66;5091016;28;1442;-37
2023/11/14 08:52:17;;;;;;;;;;;;;;;16.68;42.34;100772.63;5095693;28;1375;-40
2023/11/14 08:54:43;;;;;;;;;;;;;;;17.57;40.77;100775.84;5095539;28;1386;-44
2023/11/14 08:57:08;;;;;;;;;;;;;;;17.00;41.73;100773.84;5095614;28;1406;-43
2023/11/14 08:59:34;;;;;;;;;;;;;;;16.70;42.42;100770.69;5094491;28;1972;-41
2023/11/14 09:01:59;;;;;;;;;;;;;;;16.50;43.06;100767.69;5094811;28;1405;-41
2023/11/14 09:04:25;;;;;;;;;;;;;;;17.40;41.16;100759.38;5098376;28;1326;-40
2023/11/14 09:06:51;;;;;;;;;;;;;;;17.02;41.63;100755.97;5096430;28;1350;-42
2023/11/14 09:09:20;;;;;;;;;;;;;;;16.67;42.37;100754.13;5099960;28;1383;-42
2023/11/14 09:11:46;;;;;;;;;;;;;;;16.44;42.89;100754.84;5099234;28;1421;-38
2023/11/14 09:14:12;;;;;;;;;;;;;;;16.69;42.52;100741.59;5099802;28;1476;-39
2023/11/14 09:16:38;;;;;;;;;;;;;;;17.71;40.38;100729.56;5099081;28;1426;-42
2023/11/14 09:19:04;;;;;;;;;;;;;;;17.05;41.50;100720.38;5089835;28;1905;-39
2023/11/14 09:21:30;;;;;;;;;;;;;;;16.72;42.45;100725.41;5078814;28;1390;-40
2023/11/14 09:23:56;;;;;;;;;;;;;;;16.57;42.67;100719.44;5079637;28;1332;-39
2023/11/14 09:26:23;;;;;;;;;;;;;;;17.27;41.38;100724.91;5090643;28;1453;-37
2023/11/14 09:28:49;;;;;;;;;;;;;;;16.99;41.91;100711.03;5099401;28;1382;-36
2023/11/14 09:31:15;;;;;;;;;;;;;;;16.63;42.50;100706.53;5098808;28;1231;-37
2023/11/14 09:33:42;;;;;;;;;;;;;;;17.46;41.13;100684.47;5099570;28;1464;-38
2023/11/14 09:36:07;;;;;;;;;;;;;;;17.17;41.30;100673.41;5099642;28;1397;-44
2023/11/14 09:38:33;;;;;;;;;;;;;;;16.80;42.44;100674.38;5097806;28;1890;-44
2023/11/14 09:41:02;;;;;;;;;;;;;;;16.58;42.84;100668.03;5098878;28;1449;-39
2023/11/14 09:43:32;;;;;;;;;;;;;;;16.50;43.17;100673.88;5122000;27;1401;-43
2023/11/14 09:45:58;;;;;;;;;;;;;;;17.59;40.73;100670.19;5116318;27;1192;-39
2023/11/14 09:48:25;;;;;;;;;;;;;;;17.06;41.95;100669.75;5099205;28;1403;-43
2023/11/14 09:50:50;;;;;;;;;;;;;;;16.67;42.63;100662.03;5099197;28;1426;-38
2023/11/14 09:53:16;;;;;;;;;;;;;;;16.52;43.19;100664.00;5098018;28;1304;-40
2023/11/14 09:55:42;;;;;;;;;;;;;;;17.27;41.67;100668.25;5115996;27;1328;-42
2023/11/14 09:58:08;;;;;;;;;;;;;;;17.06;41.91;100664.44;5112224;27;1379;-37
2023/11/14 10:00:33;;;;;;;;;;;;;;;16.70;42.60;100666.28;5098514;28;2011;-40
2023/11/14 10:02:59;;;;;;;;;;;;;;;17.39;41.36;100667.28;5098937;28;1034;-39
2023/11/14 10:05:25;;;;;;;;;;;;;;;17.35;41.15;100653.38;5098981;28;1042;-45
2023/11/14 10:07:50;;;;;;;;;;;;;;;16.83;42.29;100648.41;5093572;28;1150;-40
2023/11/14 10:10:16;;;;;;;;;;;;;;;16.65;42.84;100646.19;5129580;27;1190;-41
2023/11/14 10:12:41;;;;;;;;;;;;;;;16.97;42.25;100641.22;5091595;28;1099;-37
2023/11/14 10:15:07;;;;;;;;;;;;;;;17.16;41.87;100640.69;5091163;28;1348;-39
2023/11/14 10:17:38;;;;;;;;;;;;;;;16.74;42.69;100633.19;5092292;28;1448;-40
2023/11/14 10:20:07;;;;;;;;;;;;;;;16.53;43.10;100637.34;5098639;28;1982;-40
2023/11/14 10:22:34;;;;;;;;;;;;;;;16.86;42.71;100624.31;5098502;28;1244;-40
2023/11/14 10:24:59;;;;;;;;;;;;;;;17.24;41.66;100629.44;5098985;28;1483;-38
2023/11/14 10:27:28;;;;;;;;;;;;;;;16.75;42.61;100625.09;5098579;28;1450;-43
2023/11/14 10:29:54;;;;;;;;;;;;;;;16.49;43.10;100625.25;5098951;28;1438;-38
2023/11/14 10:32:22;;;;;;;;;;;;;;;16.38;43.41;100627.88;5097987;28;1200;-39
2023/11/14 10:34:47;;;;;;;;;;;;;;;17.27;41.73;100621.22;5095670;28;1240;-38
2023/11/14 10:37:13;;;;;;;;;;;;;;;16.96;42.15;100619.13;5098038;28;1398;-38
2023/11/14 10:39:51;;;;;;;;;;;;;;;16.68;43.00;100615.06;5096679;28;1913;-41
2023/11/14 10:42:16;;;;;;;;;;;;;;;17.69;40.87;100614.44;5089624;28;1058;-38
2023/11/14 10:44:56;;;;;;;;;;;;;;;17.08;41.89;100608.50;5096614;28;1049;-41
2023/11/14 10:47:24;;;;;;;;;;;;;;;16.74;42.69;100604.81;5098647;28;1409;-40
2023/11/14 10:49:50;;;;;;;;;;;;;;;16.51;43.12;100606.56;5112496;27;1327;-40
2023/11/14 10:52:15;;;;;;;;;;;;;;;16.39;43.46;100603.00;5092019;28;1113;-37
2023/11/14 10:54:41;;;;;;;;;;;;;;;16.56;43.55;100603.56;5097615;28;1414;-38
2023/11/14 10:57:08;;;;;;;;;;;;;;;17.35;41.58;100594.88;5096583;28;1084;-39
2023/11/14 10:59:33;;;;;;;;;;;;;;;16.84;42.95;100596.13;5126379;27;1937;-40
2023/11/14 11:01:58;;;;;;;;;;;;;;;16.55;43.28;100597.38;5098112;28;1461;-38
2023/11/14 11:04:24;;;;;;;;;;;;;;;16.35;43.80;100586.47;5095358;28;1054;-38
2023/11/14 11:06:50;;;;;;;;;;;;;;;17.07;42.46;100588.19;5094512;28;1194;-41
2023/11/14 11:09:15;;;;;;;;;;;;;;;17.30;41.62;100596.22;5095915;28;977;-38
2023/11/14 11:11:43;;;;;;;;;;;;;;;16.77;42.76;100601.94;5096864;28;1331;-37
2023/11/14 11:14:09;;;;;;;;;;;;;;;16.48;43.41;100585.56;5092143;28;1174;-40
2023/11/14 11:16:45;;;;;;;;;;;;;;;17.45;41.60;100587.03;5097054;28;1433;-37
2023/11/14 11:19:11;;;;;;;;;;;;;;;16.98;42.42;100589.78;5096508;28;1976;-38
2023/11/14 11:21:37;;;;;;;;;;;;;;;16.57;43.40;100582.19;5097892;28;1354;-41
2023/11/14 11:24:09;;;;;;;;;;;;;;;16.45;43.79;100581.31;5096716;28;1473;-44
2023/11/14 11:26:53;;;;;;;;;;;;;;;17.53;41.64;100562.50;5086991;28;1317;-37
2023/11/14 11:29:38;;;;;;;;;;;;;;;16.90;42.75;100547.84;5097176;28;1078;-39
2023/11/14 11:32:21;;;;;;;;;;;;;;;16.65;43.28;100539.97;5102957;28;1713;-38
2023/11/14 11:34:46;;;;;;;;;;;;;;;17.37;41.82;100539.78;5097245;28;1208;-40
2023/11/14 11:37:30;;;;;;;;;;;;;;;16.93;42.72;100537.00;5097589;28;1340;-37
2023/11/14 11:40:11;;;;;;;;;;;;;;;15.73;43.54;100392.03;5084641;28;1902;-39
2023/11/14 11:42:38;;;;;;;;;;;;;;;16.49;43.82;100524.38;5083626;28;1197;-42
2023/11/14 11:45:04;;;;;;;;;;;;;;;17.44;41.55;100516.19;5095733;28;1052;-37
2023/11/14 11:47:36;;;;;;;;;;;;;;;16.95;42.59;100504.97;5116178;27;1065;-43
2023/11/14 11:50:32;;;;;;;;;;;;;;;16.64;43.32;100506.41;5096780;28;1053;-42
2023/11/14 11:53:01;;;;;;;;;;;;;;;16.49;43.84;100507.56;5092333;28;1265;-40
2023/11/14 11:55:27;;;;;;;;;;;;;;;17.42;41.74;100499.50;5096723;28;1074;-42
2023/11/14 11:58:07;;;;;;;;;;;;;;;16.93;42.75;100494.47;5095776;28;1125;-41
2023/11/14 12:00:33;;;;;;;;;;;;;;;16.56;43.70;100487.56;5095184;28;1967;-40
2023/11/14 12:02:59;;;;;;;;;;;;;;;16.39;44.17;100478.22;5085298;28;1083;-42
2023/11/14 12:05:26;;;;;;;;;;;;;;;16.96;42.76;100475.63;5102385;28;1054;-43
2023/11/14 12:07:51;;;;;;;;;;;;;;;17.21;42.20;100471.06;5098683;27;1041;-44
2023/11/14 12:10:17;;;;;;;;;;;;;;;16.71;43.18;100463.44;5096373;28;1300;-43
2023/11/14 12:12:45;;;;;;;;;;;;;;;16.52;43.91;100471.00;5096618;28;1351;-46
2023/11/14 12:15:16;;;;;;;;;;;;;;;16.39;44.15;100470.28;5096669;28;1142;-39
2023/11/14 12:17:51;;;;;;;;;;;;;;;17.20;42.40;100468.50;5094912;28;1257;-37
2023/11/14 12:20:17;;;;;;;;;;;;;;;17.33;41.90;100457.72;5079679;28;1981;-41
2023/11/14 12:22:43;;;;;;;;;;;;;;;16.85;42.85;100454.38;5080143;28;1078;-38
2023/11/14 12:25:09;;;;;;;;;;;;;;;16.59;43.44;100443.97;5090572;28;1415;-37
2023/11/14 12:27:34;;;;;;;;;;;;;;;16.48;44.06;100447.47;5083902;28;1464;-38
2023/11/14 12:30:07;;;;;;;;;;;;;;;17.36;42.32;100444.19;5094409;28;1169;-38
2023/11/14 12:32:36;;;;;;;;;;;;;;;17.15;42.39;100439.63;5094132;28;1359;-42
2023/11/14 12:35:03;;;;;;;;;;;;;;;16.75;43.48;100444.47;5094385;28;1372;-41
2023/11/14 12:37:28;;;;;;;;;;;;;;;16.55;43.75;100461.13;5092038;28;1281;-40
2023/11/14 12:40:09;;;;;;;;;;;;;;;17.60;41.67;100470.56;5095820;28;1986;-40
2023/11/14 12:42:34;;;;;;;;;;;;;;;17.19;42.29;100475.63;5094120;28;1141;-38
2023/11/14 12:45:08;;;;;;;;;;;;;;;16.81;43.42;100480.34;5090043;28;1133;-38